Flight Track Log - Related Links

Times and Time Zones

All times are in EDT time to prevent confusion due to time zone crossing. See the UAL335 flight status page for this flight to view local times or setup timezone preferences in your user account.

Time Position Orientation Groundspeed Altitude Reporting Facility
EDT Latitude Longitude Course Direction KTS MPH feet Rate Location/Type
Fri 03:54:57 PM 29.9722 -95.3664 259° West 182 209 1,900  Level Houston Center
Fri 03:55:47 PM 29.9672 -95.4206 264° West 202 232 3,700 2,196 Climbing Houston Center
Fri 03:56:49 PM 29.9892 -95.4878 291° West 227 261 6,000 2,710 Climbing Houston Center
Fri 03:57:00 PM 30.0225 -95.6802 276° West  Level FlightAware Approximate
Fri 03:57:51 PM 30.0111 -95.5633 289° West 247 284 9,300  Level Houston Center
Fri 03:58:00 PM 30.0330 -95.7966 276° West  Level FlightAware Approximate
Fri 03:58:53 PM 30.0208 -95.6478 278° West 263 303 11,500  Level Houston Center
Fri 03:59:00 PM 30.0428 -95.9130 276° West  Level FlightAware Approximate
Fri 03:59:55 PM 30.0331 -95.7478 278° West 315 362 13,100  Level Houston Center
Fri 04:00:58 PM 30.0494 -95.8839 278° West 356 410 15,800 2,256 Climbing Houston Center
Fri 04:02:00 PM 30.0639 -96.0008 278° West 369 425 17,800 1,935 Climbing Houston Center
Fri 04:03:02 PM 30.0786 -96.1225 278° West 379 436 19,800 1,935 Climbing Houston Center
Fri 04:04:04 PM 30.0989 -96.2442 281° West 387 445 21,800 1,839 Climbing Houston Center
Fri 04:05:06 PM 30.1175 -96.3692 280° West 396 456 23,600 1,694 Climbing Houston Center
Fri 04:06:08 PM 30.1372 -96.5036 280° West 399 459 25,300 1,694 Climbing Houston Center
Fri 04:07:10 PM 30.1586 -96.6308 281° West 399 459 27,100 1,597 Climbing Houston Center
Fri 04:08:12 PM 30.1800 -96.7808 279° West 400 460 28,600 1,440 Climbing Houston Center
Fri 04:09:15 PM 30.2006 -96.9097 280° West 402 463 30,100 1,440 Climbing Houston Center
Fri 04:10:17 PM 30.2186 -97.0383 279° West 400 460 31,600 919 Climbing Houston Center
Fri 04:11:19 PM 30.2375 -97.1669 280° West 400 460 32,000 194 Climbing Houston Center
Fri 04:12:21 PM 30.2564 -97.2922 280° West 394 453 32,000  Level Houston Center
Fri 04:13:23 PM 30.2753 -97.4203 280° West 396 456 32,000  Level Houston Center
Fri 04:14:25 PM 30.2928 -97.5478 279° West 397 457 32,000  Level Houston Center
Fri 04:15:27 PM 30.3117 -97.6797 279° West 405 466 32,000  Level Houston Center
Fri 04:16:29 PM 30.3297 -97.8092 279° West 402 463 32,000  Level Houston Center
Fri 04:17:31 PM 30.3575 -97.9583 282° West 399 459 32,000  Level Houston Center
Fri 04:18:34 PM 30.3856 -98.0864 284° West 405 466 32,000  Level Houston Center
Fri 04:19:36 PM 30.4122 -98.2139 284° West 404 465 32,000  Level Houston Center
Fri 04:20:38 PM 30.4400 -98.3406 284° West 403 464 32,000  Level Houston Center
Fri 04:21:40 PM 30.4656 -98.4689 283° West 404 465 32,000  Level Houston Center
Fri 04:22:42 PM 30.4908 -98.5972 283° West 404 465 32,000  Level Houston Center
Fri 04:23:44 PM 30.5172 -98.7267 283° West 407 468 32,000  Level Houston Center
Fri 04:24:46 PM 30.5500 -98.8783 284° West 411 473 32,000  Level Houston Center
Fri 04:25:48 PM 30.5758 -99.0069 283° West 408 470 32,000  Level Houston Center
Fri 04:26:50 PM 30.6031 -99.1428 283° West 410 472 32,000  Level Houston Center
Fri 04:27:52 PM 30.6289 -99.2711 283° West 411 473 32,000  Level Houston Center
Fri 04:28:55 PM 30.6539 -99.4003 283° West 412 474 32,000  Level Houston Center
Fri 04:29:57 PM 30.6792 -99.5297 283° West 413 475 32,000  Level Houston Center
Fri 04:30:59 PM 30.7050 -99.6600 283° West 416 479 32,000  Level Houston Center
Fri 04:32:01 PM 30.7358 -99.8158 283° West 416 479 32,000  Level Houston Center
Fri 04:33:03 PM 30.7628 -99.9478 283° West 420 483 32,000  Level Houston Center
Fri 04:34:05 PM 30.7864 -100.0767 282° West 414 476 32,000 -48 Level Houston Center
Fri 04:35:07 PM 30.8119 -100.2069 283° West 414 476 31,900  Descending Houston Center
Fri 04:36:09 PM 30.8369 -100.3369 283° West 415 478 32,000 48 Climbing Houston Center
Fri 04:37:11 PM 30.8608 -100.4700 282° West 432 497 32,000  Level Houston Center
Fri 04:38:14 PM 30.8903 -100.6286 282° West 425 489 32,000  Level Houston Center
Fri 04:39:16 PM 30.9161 -100.7608 283° West 422 486 32,000  Level Houston Center
Fri 04:40:18 PM 30.9411 -100.8933 282° West 423 487 32,000  Level Houston Center
Fri 04:41:20 PM 30.9650 -101.0289 282° West 438 504 32,000  Level Houston Center
Fri 04:42:22 PM 30.9894 -101.1608 282° West 425 489 32,000  Level Houston Center
Fri 04:43:24 PM 31.0225 -101.3189 284° West 423 487 32,000  Level Houston Center
Fri 04:44:39 PM 31.0497 -101.4858 281° West 424 488 32,000  Level Albuquerque Center
Fri 04:45:41 PM 31.0731 -101.6211 281° West 425 489 32,000  Level Albuquerque Center
Fri 04:46:43 PM 31.0975 -101.7575 282° West 428 493 32,000  Level Albuquerque Center
Fri 04:47:44 PM 31.1208 -101.8919 281° West 426 490 32,000  Level Albuquerque Center
Fri 04:48:46 PM 31.1453 -102.0369 281° West 436 502 32,000  Level Albuquerque Center
Fri 04:49:48 PM 31.1694 -102.1731 282° West 431 496 32,000  Level Albuquerque Center
Fri 04:50:50 PM 31.1936 -102.3100 282° West 430 495 32,000  Level Albuquerque Center
Fri 04:51:52 PM 31.2219 -102.4756 281° West 432 497 32,000 -48 Level Albuquerque Center
Fri 04:52:54 PM 31.2453 -102.6144 281° West 426 490 31,900  Descending Albuquerque Center
Fri 04:53:56 PM 31.2689 -102.7517 281° West 428 493 32,000 48 Climbing Albuquerque Center
Fri 04:54:58 PM 31.2917 -102.8881 281° West 429 494 32,000  Level Albuquerque Center
Fri 04:56:00 PM 31.3150 -103.0247 281° West 429 494 32,000  Level Albuquerque Center
Fri 04:57:02 PM 31.3372 -103.1622 281° West 430 495 32,000  Level Albuquerque Center
Fri 04:58:04 PM 31.3600 -103.3000 281° West 432 497 32,000  Level Albuquerque Center
Fri 04:59:05 PM 31.3822 -103.4358 281° West 428 493 32,000  Level Albuquerque Center
Fri 05:00:07 PM 31.4094 -103.6011 281° West 430 495 32,000  Level Albuquerque Center
Fri 05:01:09 PM 31.4308 -103.7361 281° West 426 490 32,000  Level Albuquerque Center
Fri 05:02:11 PM 31.4531 -103.8789 280° West 423 487 32,000  Level Albuquerque Center
Fri 05:03:13 PM 31.4753 -104.0131 281° West 421 484 32,000  Level Albuquerque Center
Fri 05:04:15 PM 31.4961 -104.1472 280° West 420 483 32,000  Level Albuquerque Center
Fri 05:05:17 PM 31.5186 -104.2797 281° West 418 481 32,000  Level Albuquerque Center
Fri 05:06:19 PM 31.5386 -104.4125 280° West 416 479 32,000  Level Albuquerque Center
Fri 05:07:21 PM 31.5597 -104.5461 281° West 419 482 32,000  Level Albuquerque Center
Fri 05:08:23 PM 31.5961 -104.7019 285° West 417 480 32,000  Level Albuquerque Center
Fri 05:09:24 PM 31.6311 -104.8281 288° West 412 474 32,000  Level Albuquerque Center
Fri 05:10:26 PM 31.6636 -104.9581 286° West 416 479 32,000  Level Albuquerque Center
Fri 05:11:28 PM 31.6972 -105.0869 287° West 416 479 32,000  Level Albuquerque Center
Fri 05:12:30 PM 31.7289 -105.2164 286° West 415 478 32,000  Level Albuquerque Center
Fri 05:13:32 PM 31.7678 -105.3719 286° West 417 480 32,000  Level Albuquerque Center
Fri 05:14:34 PM 31.8014 -105.5000 287° West 411 473 32,000  Level Albuquerque Center
Fri 05:15:36 PM 31.8356 -105.6303 287° West 416 479 32,000  Level Albuquerque Center
Fri 05:16:38 PM 31.8681 -105.7586 287° West 412 474 32,000 -48 Level Albuquerque Center
Fri 05:17:40 PM 31.9022 -105.8881 287° West 415 478 31,900 -49 Descending Albuquerque Center
Fri 05:18:41 PM 31.9403 -106.0353 287° West 418 481 31,900  Level Albuquerque Center
Fri 05:19:43 PM 31.9731 -106.1658 287° West 417 480 31,900 48 Level Albuquerque Center
Fri 05:20:45 PM 32.0053 -106.2961 286° West 416 479 32,000 48 Climbing Albuquerque Center
Fri 05:21:47 PM 32.0383 -106.4269 287° West 417 480 32,000  Level Albuquerque Center
Fri 05:22:49 PM 32.0711 -106.5578 287° West 417 480 32,000  Level Albuquerque Center
Fri 05:23:51 PM 32.1047 -106.6878 287° West 415 478 32,000  Level Albuquerque Center
Fri 05:24:53 PM 32.1444 -106.8453 287° West 416 479 32,000  Level Albuquerque Center
Fri 05:25:55 PM 32.1794 -106.9836 287° West 418 481 32,000  Level Albuquerque Center
Fri 05:26:56 PM 32.2103 -107.1142 286° West 415 478 32,000  Level Albuquerque Center
Fri 05:27:58 PM 32.2386 -107.2347 286° West 420 483 32,000  Level Albuquerque Center
Fri 05:29:00 PM 32.2739 -107.3933 285° West 420 483 32,000  Level Albuquerque Center
Fri 05:30:02 PM 32.3039 -107.5119 287° West 418 481 32,000 -48 Level Albuquerque Center
Fri 05:31:04 PM 32.3358 -107.6450 286° West 418 481 31,900  Descending Albuquerque Center
Fri 05:32:06 PM 32.3672 -107.7786 286° West 420 483 32,000 48 Climbing Albuquerque Center
Fri 05:33:08 PM 32.4053 -107.9378 286° West 419 482 32,000  Level Albuquerque Center
Fri 05:34:10 PM 32.4372 -108.0708 286° West 420 483 32,000  Level Albuquerque Center
Fri 05:35:12 PM 32.4689 -108.2092 285° West 419 482 32,000  Level Albuquerque Center
Fri 05:36:13 PM 32.4994 -108.3406 285° West 418 481 32,000  Level Albuquerque Center
Fri 05:37:15 PM 32.5306 -108.4739 286° West 421 484 32,000  Level Albuquerque Center
Fri 05:38:17 PM 32.5614 -108.6061 285° West 419 482 32,000  Level Albuquerque Center
Fri 05:39:19 PM 32.5917 -108.7392 285° West 419 482 32,000  Level Albuquerque Center
Fri 05:40:21 PM 32.6228 -108.8733 285° West 421 484 32,000  Level Albuquerque Center
Fri 05:41:23 PM 32.6597 -109.0350 285° West 424 488 32,000  Level Albuquerque Center
Fri 05:42:24 PM 32.6894 -109.1692 285° West 420 483 32,000  Level Albuquerque Center
Fri 05:43:26 PM 32.7194 -109.3044 285° West 422 486 32,000  Level Albuquerque Center
Fri 05:44:28 PM 32.7500 -109.4378 285° West 420 483 32,000  Level Albuquerque Center
Fri 05:45:30 PM 32.7797 -109.5722 285° West 420 483 32,000  Level Albuquerque Center
Fri 05:46:32 PM 32.8103 -109.7072 285° West 423 487 32,000  Level Albuquerque Center
Fri 05:47:33 PM 32.8447 -109.8678 284° West 421 484 32,000  Level Albuquerque Center
Fri 05:48:35 PM 32.8742 -110.0019 285° West 421 484 32,000  Level Albuquerque Center
Fri 05:49:37 PM 32.9058 -110.1378 286° West 427 491 32,000  Level Albuquerque Center
Fri 05:50:39 PM 32.9350 -110.2722 285° West 426 490 32,000  Level Albuquerque Center
Fri 05:51:41 PM 32.9639 -110.4078 284° West 426 490 32,000  Level Albuquerque Center
Fri 05:52:42 PM 32.9933 -110.5431 285° West 426 490 32,000  Level Albuquerque Center
Fri 05:53:44 PM 33.0278 -110.7053 284° West 425 489 32,000  Level Albuquerque Center
Fri 05:54:46 PM 33.0558 -110.8408 284° West 425 489 32,000  Level Albuquerque Center
Fri 05:55:48 PM 33.0936 -110.9728 289° West 423 487 32,000  Level Albuquerque Center
Fri 05:56:49 PM 33.1367 -111.1233 289° West 425 489 32,000  Level Albuquerque Center
Fri 05:57:51 PM 33.1736 -111.2572 288° West 426 490 32,000  Level Albuquerque Center
Fri 05:58:53 PM 33.2136 -111.4019 288° West 427 491 32,000  Level Albuquerque Center
Fri 05:59:55 PM 33.2517 -111.5358 289° West 427 491 32,000  Level Albuquerque Center
Fri 06:01:30 PM 33.3036 -111.7100 290° West 428 493 32,000  Level Los Angeles Center
Fri 06:01:58 PM 33.3256 -111.7906 288° West 435 501 32,000  Level Albuquerque Center
Fri 06:03:00 PM 33.3697 -111.9528 288° West 431 496 32,000  Level Albuquerque Center
Fri 06:04:02 PM 33.4083 -112.0872 289° West 429 494 32,000  Level Albuquerque Center
Fri 06:05:03 PM 33.4464 -112.2239 288° West 433 498 32,000  Level Albuquerque Center
Fri 06:06:05 PM 33.4878 -112.3750 288° West 431 496 32,000  Level Albuquerque Center
Fri 06:07:07 PM 33.5261 -112.5125 289° West 435 501 32,000  Level Albuquerque Center
Fri 06:08:09 PM 33.5594 -112.6325 288° West 434 499 32,000  Level Albuquerque Center
Fri 06:09:11 PM 33.6044 -112.7978 288° West 437 503 32,000  Level Albuquerque Center
Fri 06:10:12 PM 33.6422 -112.9361 288° West 438 504 32,000 -49 Level Albuquerque Center
Fri 06:11:14 PM 33.6797 -113.0767 288° West 442 509 31,900  Descending Albuquerque Center
Fri 06:12:16 PM 33.7167 -113.2156 288° West 442 509 32,000 49 Climbing Albuquerque Center
Fri 06:13:17 PM 33.7547 -113.3556 288° West 442 509 32,000  Level Albuquerque Center
Fri 06:14:19 PM 33.7919 -113.4942 288° West 440 506 32,000  Level Albuquerque Center
Fri 06:15:21 PM 33.8353 -113.6628 287° West 441 507 32,000  Level Albuquerque Center
Fri 06:16:23 PM 33.8722 -113.8053 287° West 445 512 32,000  Level Albuquerque Center
Fri 06:17:24 PM 33.9072 -113.9464 287° West 443 510 32,000  Level Albuquerque Center
Fri 06:18:26 PM 33.9347 -114.0903 283° West 444 511 32,000  Level Albuquerque Center
Fri 06:19:28 PM 33.9469 -114.2408 276° West 455 524 32,000 -49 Level Albuquerque Center
Fri 06:20:29 PM 33.9656 -114.3875 279° West 450 518 31,900  Descending Albuquerque Center
Fri 06:21:10 PM 33.9842 -114.5067 281° West 446 513 32,000 58 Climbing Los Angeles Center
Fri 06:22:12 PM 34.0017 -114.6558 278° West 449 517 32,000 -48 Level Los Angeles Center
Fri 06:23:15 PM 34.0186 -114.8042 278° West 450 518 31,900  Descending Los Angeles Center
Fri 06:24:17 PM 34.0333 -114.9525 277° West 449 517 32,000 48 Climbing Los Angeles Center
Fri 06:25:19 PM 34.0486 -115.1019 277° West 451 519 32,000 -48 Level Los Angeles Center
Fri 06:26:21 PM 34.0664 -115.2814 277° West 453 521 31,900  Descending Los Angeles Center
Fri 06:27:23 PM 34.0811 -115.4306 277° West 452 520 32,000 -435 Climbing Los Angeles Center
Fri 06:28:25 PM 34.0958 -115.5803 277° West 453 521 31,000 -968 Descending Los Angeles Center
Fri 06:29:27 PM 34.1092 -115.7303 276° West 454 522 30,000 -1,065 Descending Los Angeles Center
Fri 06:30:29 PM 34.0967 -115.8817 264° West 458 527 28,800 -968 Descending Los Angeles Center
Fri 06:31:31 PM 34.0744 -116.0292 260° West 451 519 28,000 -823 Descending Los Angeles Center
Fri 06:32:33 PM 34.0481 -116.2064 260° West 450 518 27,100 -726 Descending Los Angeles Center
Fri 06:33:35 PM 34.0261 -116.3528 260° West 447 514 26,500 -532 Descending Los Angeles Center
Fri 06:34:37 PM 34.0047 -116.4967 260° West 441 507 26,000 -768 Descending Los Angeles Center
Fri 06:35:40 PM 33.9933 -116.6414 265° West 438 504 24,900 -1,824 Descending Los Angeles Center
Fri 06:36:42 PM 33.9825 -116.7731 264° West 407 468 22,200 -2,537 Descending Los Angeles Center
Fri 06:37:43 PM 33.9736 -116.8908 265° West 364 419 19,700 -2,500 Descending Los Angeles Center
Fri 06:38:06 PM 33.9667 -116.9500 262° West 347 399 18,700 -1,518 Descending Southern California TRACON
Fri 06:39:06 PM 33.9500 -117.0667 260° West 332 382 17,600 -1,100 Descending Southern California TRACON
Fri 06:40:06 PM 33.9500 -117.1667 270° West 314 361 16,500 -952 Descending Southern California TRACON
Fri 06:41:12 PM 33.9333 -117.2833 260° West 306 352 15,600 -950 Descending Southern California TRACON
Fri 06:42:06 PM 33.9333 -117.3833 270° West 307 353 14,600 -1,263 Descending Southern California TRACON
Fri 06:43:06 PM 33.9667 -117.4667 296° West 275 316 13,200 -1,400 Descending Southern California TRACON
Fri 06:44:06 PM 34.0000 -117.5500 296° West 272 313 11,800 -1,339 Descending Southern California TRACON
Fri 06:45:07 PM 34.0167 -117.6333 284° West 313 360 10,500 -952 Descending Southern California TRACON
Fri 06:46:12 PM 34.0000 -117.7333 259° West 271 312 9,800 -950 Descending Southern California TRACON
Fri 06:47:07 PM 34.0000 -117.8167 270° West 269 310 8,600 -1,148 Descending Southern California TRACON
Fri 06:48:07 PM 33.9833 -117.9167 259° West 257 296 7,600 -1,050 Descending Southern California TRACON
Fri 06:49:07 PM 33.9833 -117.9833 270° West 229 264 6,500 -1,100 Descending Southern California TRACON
Fri 06:50:07 PM 33.9667 -118.0500 253° West 201 231 5,400 -900 Descending Southern California TRACON
Fri 06:51:07 PM 33.9667 -118.1167 270° West 182 209 4,700 -800 Descending Southern California TRACON
Fri 06:52:07 PM 33.9667 -118.1833 270° West 181 208 3,800 -900 Descending Southern California TRACON

Login

Don't have an account? Register now (free) for customized features, flight alerts, and more!